createdAt,value
2017-08-07T00:00:50.518Z,12.30
2017-08-07T00:03:18.100Z,12.30
2017-08-07T00:05:45.709Z,12.20
2017-08-07T00:08:13.352Z,12.30
2017-08-07T00:10:40.933Z,12.30
2017-08-07T00:13:08.560Z,12.30
2017-08-07T00:15:36.928Z,12.30
2017-08-07T00:18:30.333Z,12.30
2017-08-07T00:20:57.941Z,12.20
2017-08-07T00:23:25.633Z,12.30
2017-08-07T00:25:53.985Z,12.50
2017-08-07T00:28:21.579Z,12.40
2017-08-07T00:30:49.403Z,12.50
2017-08-07T00:33:17.109Z,12.40
2017-08-07T00:35:44.703Z,12.30
2017-08-07T00:38:12.326Z,12.20
2017-08-07T00:40:39.945Z,12.20
2017-08-07T00:43:07.552Z,12.20
2017-08-07T00:45:37.923Z,12.10
2017-08-07T00:48:05.558Z,12.10
2017-08-07T00:50:33.144Z,12.10
2017-08-07T00:53:00.768Z,12.00
2017-08-07T00:55:28.371Z,12.20
2017-08-07T00:57:56.025Z,12.30
2017-08-07T01:00:23.637Z,12.20
2017-08-07T01:02:51.977Z,12.00
2017-08-07T01:05:19.600Z,12.00
2017-08-07T01:07:47.287Z,11.90
2017-08-07T01:10:14.914Z,11.80
2017-08-07T01:12:42.491Z,11.80
2017-08-07T01:15:10.235Z,11.70
2017-08-07T01:17:37.823Z,11.70
2017-08-07T01:20:05.418Z,11.60
2017-08-07T01:22:33.053Z,11.60
2017-08-07T01:25:00.714Z,11.60
2017-08-07T01:27:28.341Z,11.50
2017-08-07T01:29:56.001Z,11.50
2017-08-07T01:32:23.629Z,11.50
2017-08-07T01:34:51.263Z,11.50
2017-08-07T01:37:18.876Z,11.50
2017-08-07T01:39:47.271Z,11.50
2017-08-07T01:42:14.880Z,11.50
2017-08-07T01:44:42.718Z,11.50
2017-08-07T01:47:10.392Z,11.50
2017-08-07T01:49:38.027Z,11.50
2017-08-07T01:52:05.750Z,11.50
2017-08-07T01:54:33.401Z,11.50
2017-08-07T01:57:01.087Z,11.50
2017-08-07T01:59:29.491Z,11.50
2017-08-07T02:01:57.103Z,11.50
2017-08-07T02:04:24.754Z,11.50
2017-08-07T02:06:52.382Z,11.50
2017-08-07T02:09:19.971Z,11.60
2017-08-07T02:11:47.649Z,11.60
2017-08-07T02:14:15.328Z,11.50
2017-08-07T02:16:43.672Z,11.50
2017-08-07T02:19:11.329Z,11.50
2017-08-07T02:21:39.068Z,11.50
2017-08-07T02:24:06.666Z,11.40
2017-08-07T02:26:34.260Z,11.40
2017-08-07T02:29:02.692Z,11.60
2017-08-07T02:31:30.403Z,11.50
2017-08-07T02:33:58.828Z,11.60
2017-08-07T02:36:26.473Z,11.50
2017-08-07T02:38:54.060Z,11.60
2017-08-07T02:41:21.635Z,11.50
2017-08-07T02:43:49.248Z,11.50
2017-08-07T02:46:16.871Z,11.40
2017-08-07T02:48:44.441Z,11.30
2017-08-07T02:51:12.085Z,11.20
2017-08-07T02:53:39.662Z,11.30
2017-08-07T02:56:07.493Z,11.30
2017-08-07T02:58:35.120Z,11.10
2017-08-07T03:01:02.857Z,11.10
2017-08-07T03:03:31.304Z,10.90
2017-08-07T03:05:58.992Z,10.90
2017-08-07T03:08:26.595Z,10.90
2017-08-07T03:10:54.357Z,11.00
2017-08-07T03:13:22.063Z,11.10
2017-08-07T03:15:49.649Z,11.00
2017-08-07T03:18:17.269Z,11.00
2017-08-07T03:20:45.040Z,10.90
2017-08-07T03:23:13.060Z,10.80
2017-08-07T03:25:41.419Z,10.90
2017-08-07T03:28:09.229Z,10.90
2017-08-07T03:30:36.834Z,10.90
2017-08-07T03:33:04.455Z,10.90
2017-08-07T03:35:32.080Z,10.90
2017-08-07T03:38:00.436Z,10.80
2017-08-07T03:40:28.200Z,10.80
2017-08-07T03:42:55.801Z,10.70
2017-08-07T03:45:23.381Z,10.70
2017-08-07T03:47:51.121Z,10.70
2017-08-07T03:50:18.703Z,10.70
2017-08-07T03:52:46.325Z,10.70
2017-08-07T03:55:14.698Z,10.60
2017-08-07T03:57:42.277Z,10.60
2017-08-07T04:00:09.897Z,10.60
2017-08-07T04:02:37.501Z,10.50
2017-08-07T04:05:06.123Z,10.50
2017-08-07T04:07:33.716Z,10.50
2017-08-07T04:10:01.335Z,10.60
2017-08-07T04:12:29.005Z,10.70
2017-08-07T04:14:56.679Z,10.80
2017-08-07T04:17:24.301Z,10.80
2017-08-07T04:19:51.925Z,10.80
2017-08-07T04:22:20.435Z,10.70
2017-08-07T04:24:48.040Z,10.60
2017-08-07T04:27:15.659Z,10.70
2017-08-07T04:29:43.259Z,10.80
2017-08-07T04:32:10.932Z,10.80
2017-08-07T04:34:38.578Z,10.80
2017-08-07T04:37:06.168Z,10.90
2017-08-07T04:39:33.823Z,11.10
2017-08-07T04:42:01.409Z,11.10
2017-08-07T04:44:29.745Z,10.90
2017-08-07T04:46:57.428Z,10.90
2017-08-07T04:49:25.073Z,10.90
2017-08-07T04:51:52.667Z,11.00
2017-08-07T04:54:21.106Z,11.40
2017-08-07T04:56:48.755Z,11.30
2017-08-07T04:59:16.347Z,11.50
2017-08-07T05:01:43.955Z,11.60
2017-08-07T05:04:11.606Z,11.70
2017-08-07T05:06:39.340Z,11.90
2017-08-07T05:09:07.023Z,12.00
2017-08-07T05:11:34.636Z,12.10
2017-08-07T05:14:02.501Z,12.30
2017-08-07T05:16:30.117Z,12.40
2017-08-07T05:18:58.468Z,13.30
2017-08-07T05:21:26.095Z,13.20
2017-08-07T05:23:53.891Z,13.70
2017-08-07T05:26:21.483Z,14.30
2017-08-07T05:28:49.831Z,15.10
2017-08-07T05:31:17.520Z,15.10
2017-08-07T05:33:45.128Z,15.40
2017-08-07T05:36:12.714Z,15.00
2017-08-07T05:38:40.480Z,14.70
2017-08-07T05:41:08.169Z,14.70
2017-08-07T05:43:35.759Z,14.60
2017-08-07T05:46:03.377Z,14.60
2017-08-07T05:48:30.966Z,14.50
2017-08-07T05:50:58.609Z,14.60
2017-08-07T05:53:26.995Z,15.30
2017-08-07T05:55:55.369Z,15.90
2017-08-07T05:58:23.813Z,16.20
2017-08-07T06:00:51.481Z,16.20
2017-08-07T06:03:19.052Z,16.00
2017-08-07T06:05:46.746Z,16.00
2017-08-07T06:08:14.379Z,15.80
2017-08-07T06:10:41.962Z,15.80
2017-08-07T06:13:10.341Z,15.60
2017-08-07T06:15:38.845Z,15.70
2017-08-07T06:18:06.551Z,15.70
2017-08-07T06:20:34.319Z,15.60
2017-08-07T06:23:01.929Z,15.60
2017-08-07T06:25:29.529Z,15.90
2017-08-07T06:27:57.181Z,16.30
2017-08-07T06:30:24.834Z,16.50
2017-08-07T06:32:52.463Z,17.10
2017-08-07T06:35:20.079Z,17.60
2017-08-07T06:37:48.688Z,18.50
2017-08-07T06:40:23.104Z,18.70
2017-08-07T06:42:52.702Z,18.50
2017-08-07T06:45:21.447Z,18.40
2017-08-07T06:47:51.266Z,18.90
2017-08-07T06:50:19.339Z,18.90
2017-08-07T06:52:47.393Z,19.20
2017-08-07T06:55:15.875Z,19.80
2017-08-07T06:57:44.782Z,19.80
2017-08-07T07:00:12.924Z,20.30
2017-08-07T07:02:41.404Z,20.30
2017-08-07T07:05:10.599Z,20.80
2017-08-07T07:07:38.304Z,20.20
2017-08-07T07:10:06.837Z,19.90
2017-08-07T07:12:34.580Z,20.30
2017-08-07T07:15:03.827Z,20.90
2017-08-07T07:17:31.972Z,21.40
2017-08-07T07:20:00.340Z,20.90
2017-08-07T07:22:28.058Z,21.30
2017-08-07T07:24:55.637Z,21.70
2017-08-07T07:27:23.334Z,21.90
2017-08-07T07:29:51.807Z,22.10
2017-08-07T07:32:20.177Z,22.10
2017-08-07T07:34:47.870Z,22.10
2017-08-07T07:37:16.235Z,23.00
2017-08-07T07:39:44.603Z,23.10
2017-08-07T07:42:12.326Z,23.10
2017-08-07T07:44:39.991Z,22.90
2017-08-07T07:47:07.580Z,23.20
2017-08-07T07:49:35.247Z,23.90
2017-08-07T07:52:03.610Z,25.20
2017-08-07T07:54:33.757Z,26.30
2017-08-07T07:57:01.932Z,26.80
2017-08-07T07:59:30.203Z,28.00
2017-08-07T08:01:57.869Z,27.00
2017-08-07T08:04:26.417Z,26.40
2017-08-07T08:06:54.100Z,26.40
2017-08-07T08:09:21.753Z,26.40
2017-08-07T08:11:49.605Z,27.30
2017-08-07T08:14:17.199Z,27.70
2017-08-07T08:16:45.663Z,27.80
2017-08-07T08:19:13.415Z,27.70
2017-08-07T08:21:41.121Z,28.10
2017-08-07T08:24:08.722Z,28.50
2017-08-07T08:26:36.365Z,26.80
2017-08-07T08:29:05.187Z,26.90
2017-08-07T08:31:32.835Z,26.60
2017-08-07T08:34:00.459Z,27.40
2017-08-07T08:36:28.231Z,27.60
2017-08-07T08:38:56.522Z,27.60
2017-08-07T08:41:24.483Z,27.60
2017-08-07T08:43:52.621Z,25.90
2017-08-07T08:46:20.238Z,26.60
2017-08-07T08:48:48.000Z,26.90
2017-08-07T08:51:15.604Z,27.00
2017-08-07T08:53:43.203Z,27.00
2017-08-07T08:56:10.923Z,26.30
2017-08-07T08:58:39.343Z,25.70
2017-08-07T09:01:07.200Z,25.60
2017-08-07T09:03:34.903Z,25.40
2017-08-07T09:06:02.522Z,25.70
2017-08-07T09:08:30.102Z,25.60
2017-08-07T09:10:57.764Z,26.70
2017-08-07T09:13:25.349Z,26.20
2017-08-07T09:15:53.005Z,26.60
2017-08-07T09:18:20.633Z,27.20
2017-08-07T09:20:48.266Z,27.10
2017-08-07T09:23:15.960Z,27.20
2017-08-07T09:25:43.568Z,27.60
2017-08-07T09:28:11.178Z,27.30
2017-08-07T09:30:38.781Z,27.90
2017-08-07T09:33:06.490Z,27.90
2017-08-07T09:35:34.118Z,29.50
2017-08-07T09:38:01.847Z,27.70
2017-08-07T09:40:29.435Z,27.70
2017-08-07T09:42:57.028Z,27.60
2017-08-07T09:45:25.461Z,28.80
2017-08-07T09:47:53.057Z,28.80
2017-08-07T09:50:20.705Z,28.70
2017-08-07T09:52:48.317Z,29.30
2017-08-07T09:55:15.905Z,30.20
2017-08-07T09:57:43.483Z,29.50
2017-08-07T10:00:11.095Z,29.70
2017-08-07T10:02:38.753Z,28.90
2017-08-07T10:05:06.345Z,28.80
2017-08-07T10:07:33.967Z,28.90
2017-08-07T10:10:01.626Z,29.10
2017-08-07T10:12:29.242Z,29.40
2017-08-07T10:14:56.923Z,29.10
2017-08-07T10:17:24.549Z,29.80
2017-08-07T10:19:52.130Z,29.30
2017-08-07T10:22:19.747Z,28.60
2017-08-07T10:24:47.332Z,29.00
2017-08-07T10:27:15.117Z,28.70
2017-08-07T10:29:42.720Z,28.90
2017-08-07T10:32:10.421Z,29.60
2017-08-07T10:34:38.098Z,29.30
2017-08-07T10:37:06.530Z,29.80
2017-08-07T10:39:34.106Z,29.80
2017-08-07T10:42:01.743Z,29.20
2017-08-07T10:44:30.197Z,29.10
2017-08-07T10:46:57.813Z,29.10
2017-08-07T10:49:25.431Z,29.70
2017-08-07T10:51:53.145Z,29.20
2017-08-07T10:54:20.724Z,28.70
2017-08-07T10:56:48.347Z,28.70
2017-08-07T10:59:15.979Z,28.70
2017-08-07T11:01:44.439Z,29.10
2017-08-07T11:04:12.938Z,28.70
2017-08-07T11:06:40.519Z,28.70
2017-08-07T11:09:08.148Z,28.80
2017-08-07T11:11:35.922Z,29.10
2017-08-07T11:14:03.501Z,28.60
2017-08-07T11:16:31.842Z,28.00
2017-08-07T11:18:59.598Z,27.90
2017-08-07T11:21:28.088Z,28.00
2017-08-07T11:23:55.676Z,27.90
2017-08-07T11:26:24.080Z,28.30
2017-08-07T11:28:51.718Z,28.30
2017-08-07T11:31:20.067Z,27.90
2017-08-07T11:33:47.688Z,27.90
2017-08-07T11:36:15.370Z,28.20
2017-08-07T11:38:42.998Z,27.80
2017-08-07T11:41:10.609Z,27.80
2017-08-07T11:43:38.242Z,27.80
2017-08-07T11:46:05.925Z,27.50
2017-08-07T11:48:33.544Z,27.60
2017-08-07T11:51:01.139Z,28.00
2017-08-07T11:53:28.913Z,27.70
2017-08-07T11:55:56.652Z,27.70
2017-08-07T11:58:24.327Z,27.10
2017-08-07T12:00:51.915Z,26.90
2017-08-07T12:03:19.633Z,26.10
2017-08-07T12:05:47.299Z,26.20
2017-08-07T12:08:14.923Z,27.40
2017-08-07T12:10:43.371Z,27.80
2017-08-07T12:13:11.149Z,27.80
2017-08-07T12:15:38.782Z,27.60
2017-08-07T12:18:06.508Z,27.30
2017-08-07T12:20:34.089Z,27.40
2017-08-07T12:23:01.675Z,27.20
2017-08-07T12:25:31.183Z,26.40
2017-08-07T12:28:00.067Z,26.60
2017-08-07T12:30:27.818Z,27.20
2017-08-07T12:33:00.175Z,27.30
2017-08-07T12:35:27.977Z,27.30
2017-08-07T12:37:55.647Z,27.40
2017-08-07T12:40:23.256Z,27.40
2017-08-07T12:42:50.948Z,27.20
2017-08-07T12:45:18.526Z,27.30
2017-08-07T12:47:46.131Z,26.70
2017-08-07T12:50:13.752Z,27.00
2017-08-07T12:52:41.365Z,27.40
2017-08-07T12:55:09.051Z,27.30
2017-08-07T12:57:36.656Z,27.30
2017-08-07T13:00:05.041Z,27.10
2017-08-07T13:02:33.487Z,26.80
2017-08-07T13:05:01.082Z,26.80
2017-08-07T13:07:29.443Z,26.90
2017-08-07T13:09:57.133Z,26.90
2017-08-07T13:12:24.778Z,27.30
2017-08-07T13:14:53.202Z,26.70
2017-08-07T13:17:20.821Z,26.60
2017-08-07T13:19:49.185Z,26.80
2017-08-07T13:22:16.822Z,26.80
2017-08-07T13:24:44.439Z,26.40
2017-08-07T13:27:12.102Z,26.30
2017-08-07T13:29:39.755Z,26.60
2017-08-07T13:32:08.133Z,27.30
2017-08-07T13:34:35.738Z,27.20
2017-08-07T13:37:03.327Z,27.10
2017-08-07T13:39:30.941Z,26.90
2017-08-07T13:41:58.535Z,26.60
2017-08-07T13:44:26.303Z,26.40
2017-08-07T13:46:54.019Z,26.10
2017-08-07T13:49:21.596Z,26.10
2017-08-07T13:51:49.173Z,26.10
2017-08-07T13:54:16.837Z,26.30
2017-08-07T13:56:44.423Z,26.20
2017-08-07T13:59:11.997Z,26.30
2017-08-07T14:01:40.453Z,26.30
2017-08-07T14:04:08.148Z,26.20
2017-08-07T14:06:36.489Z,26.50
2017-08-07T14:09:04.461Z,26.40
2017-08-07T14:11:32.106Z,26.10
2017-08-07T14:13:59.707Z,26.10
2017-08-07T14:16:28.094Z,26.00
2017-08-07T14:18:56.524Z,26.10
2017-08-07T14:21:24.186Z,26.10
2017-08-07T14:23:51.804Z,26.20
2017-08-07T14:26:20.363Z,26.10
2017-08-07T14:28:47.966Z,26.00
2017-08-07T14:31:15.635Z,25.70
2017-08-07T14:33:43.420Z,24.90
2017-08-07T14:36:11.055Z,25.10
2017-08-07T14:38:38.754Z,24.80
2017-08-07T14:41:06.430Z,25.20
2017-08-07T14:43:34.076Z,25.70
2017-08-07T14:46:01.736Z,25.70
2017-08-07T14:48:29.355Z,25.60
2017-08-07T14:50:56.958Z,25.80
2017-08-07T14:53:24.641Z,25.80
2017-08-07T14:55:52.270Z,25.70
2017-08-07T14:58:19.866Z,25.70
2017-08-07T15:00:47.821Z,25.70
2017-08-07T15:03:15.466Z,25.60
2017-08-07T15:05:43.126Z,25.20
2017-08-07T15:08:10.728Z,25.30
2017-08-07T15:10:39.105Z,25.50
2017-08-07T15:13:06.740Z,25.50
2017-08-07T15:15:34.361Z,25.40
2017-08-07T15:18:02.096Z,25.40
2017-08-07T15:20:29.765Z,25.30
2017-08-07T15:22:58.150Z,24.80
2017-08-07T15:25:25.861Z,24.80
2017-08-07T15:27:53.441Z,24.80
2017-08-07T15:30:21.111Z,24.80
2017-08-07T15:32:49.902Z,24.90
2017-08-07T15:35:17.529Z,25.10
2017-08-07T15:37:45.179Z,25.10
2017-08-07T15:40:12.881Z,24.60
2017-08-07T15:42:40.462Z,24.70
2017-08-07T15:45:08.851Z,24.80
2017-08-07T15:47:37.385Z,24.70
2017-08-07T15:50:04.987Z,24.70
2017-08-07T15:52:33.457Z,24.70
2017-08-07T15:55:01.041Z,24.80
2017-08-07T15:57:29.790Z,24.80
2017-08-07T15:59:57.513Z,25.00
2017-08-07T16:02:25.110Z,24.90
2017-08-07T16:04:52.706Z,24.60
2017-08-07T16:07:21.185Z,24.60
2017-08-07T16:09:49.614Z,24.50
2017-08-07T16:12:18.130Z,24.60
2017-08-07T16:14:45.743Z,24.60
2017-08-07T16:17:13.435Z,24.80
2017-08-07T16:19:41.134Z,24.80
2017-08-07T16:22:09.560Z,24.70
2017-08-07T16:24:37.138Z,24.70
2017-08-07T16:27:04.787Z,24.70
2017-08-07T16:29:32.443Z,24.80
2017-08-07T16:32:00.056Z,24.80
2017-08-07T16:34:28.411Z,24.60
2017-08-07T16:36:56.145Z,24.60
2017-08-07T16:39:23.731Z,24.60
2017-08-07T16:41:51.375Z,24.60
2017-08-07T16:44:21.784Z,24.60
2017-08-07T16:46:50.247Z,24.80
2017-08-07T16:49:17.846Z,24.80
2017-08-07T16:51:45.558Z,24.70
2017-08-07T16:54:13.910Z,24.40
2017-08-07T16:56:41.610Z,24.40
2017-08-07T16:59:09.467Z,24.40
2017-08-07T17:01:37.071Z,24.30
2017-08-07T17:04:04.860Z,24.20
2017-08-07T17:06:38.553Z,24.10
2017-08-07T17:09:06.257Z,24.00
2017-08-07T17:11:34.593Z,24.00
2017-08-07T17:14:02.442Z,24.00
2017-08-07T17:16:30.136Z,24.00
2017-08-07T17:18:57.733Z,23.90
2017-08-07T17:21:26.110Z,23.70
2017-08-07T17:23:54.554Z,23.60
2017-08-07T17:26:22.191Z,23.60
2017-08-07T17:28:49.820Z,23.60
2017-08-07T17:31:17.559Z,23.50
2017-08-07T17:33:45.618Z,23.50
2017-08-07T17:36:13.254Z,23.50
2017-08-07T17:38:40.837Z,23.60
2017-08-07T17:41:08.472Z,23.70
2017-08-07T17:43:36.087Z,23.60
2017-08-07T17:46:04.433Z,23.50
2017-08-07T17:48:32.079Z,23.40
2017-08-07T17:50:59.801Z,23.40
2017-08-07T17:53:27.401Z,23.30
2017-08-07T17:55:54.986Z,23.30
2017-08-07T17:58:22.661Z,23.20
2017-08-07T18:00:51.230Z,23.20
2017-08-07T18:03:18.802Z,23.10
2017-08-07T18:05:46.704Z,23.10
2017-08-07T18:08:14.628Z,23.10
2017-08-07T18:10:42.210Z,23.00
2017-08-07T18:13:10.621Z,22.70
2017-08-07T18:15:38.389Z,22.70
2017-08-07T18:18:05.975Z,22.60
2017-08-07T18:20:33.631Z,22.50
2017-08-07T18:23:01.503Z,22.60
2017-08-07T18:25:29.152Z,22.50
2017-08-07T18:27:56.815Z,22.40
2017-08-07T18:30:24.381Z,22.20
2017-08-07T18:32:51.958Z,22.20
2017-08-07T18:35:19.690Z,22.10
2017-08-07T18:37:47.705Z,22.00
2017-08-07T18:40:15.465Z,21.80
2017-08-07T18:42:43.356Z,22.00
2017-08-07T18:45:11.885Z,21.50
2017-08-07T18:47:40.279Z,21.40
2017-08-07T18:50:07.900Z,21.40
2017-08-07T18:52:35.508Z,21.30
2017-08-07T18:55:03.087Z,21.20
2017-08-07T18:57:30.727Z,21.20
2017-08-07T18:59:59.088Z,21.10
2017-08-07T19:02:26.743Z,21.00
2017-08-07T19:04:54.352Z,20.90
2017-08-07T19:07:21.995Z,20.80
2017-08-07T19:09:49.678Z,20.80
2017-08-07T19:12:17.327Z,20.70
2017-08-07T19:14:45.073Z,20.60
2017-08-07T19:17:12.835Z,20.60
2017-08-07T19:19:41.800Z,20.40
2017-08-07T19:22:09.479Z,20.40
2017-08-07T19:24:37.310Z,20.30
2017-08-07T19:27:04.966Z,20.20
2017-08-07T19:29:33.369Z,19.90
2017-08-07T19:32:01.022Z,19.90
2017-08-07T19:34:28.797Z,19.90
2017-08-07T19:36:56.513Z,19.90
2017-08-07T19:39:24.624Z,19.80
2017-08-07T19:41:52.352Z,19.70
2017-08-07T19:44:19.937Z,19.70
2017-08-07T19:46:47.667Z,19.60
2017-08-07T19:49:15.317Z,19.60
2017-08-07T19:51:43.438Z,19.60
2017-08-07T19:54:11.091Z,19.50
2017-08-07T19:56:39.553Z,19.60
2017-08-07T19:59:07.155Z,19.50
2017-08-07T20:01:34.797Z,19.60
2017-08-07T20:04:03.596Z,19.40
2017-08-07T20:06:31.191Z,19.40
2017-08-07T20:08:58.784Z,19.30
2017-08-07T20:11:27.623Z,19.30
2017-08-07T20:13:55.374Z,19.30
2017-08-07T20:16:24.933Z,19.10
2017-08-07T20:18:52.582Z,19.00
2017-08-07T20:21:20.168Z,19.00
2017-08-07T20:23:47.879Z,18.90
2017-08-07T20:26:16.716Z,18.90
2017-08-07T20:28:44.291Z,18.90
2017-08-07T20:31:12.654Z,18.90
2017-08-07T20:33:40.683Z,18.90
2017-08-07T20:36:08.318Z,18.90
2017-08-07T20:38:35.909Z,18.80
2017-08-07T20:41:04.667Z,18.90
2017-08-07T20:43:32.265Z,18.80
2017-08-07T20:45:59.851Z,18.70
2017-08-07T20:48:27.541Z,18.70
2017-08-07T20:50:55.937Z,18.70
2017-08-07T20:53:23.515Z,18.60
2017-08-07T20:55:52.398Z,18.60
2017-08-07T20:58:20.189Z,18.60
2017-08-07T21:00:47.871Z,18.60
2017-08-07T21:03:15.520Z,18.70
2017-08-07T21:05:44.345Z,18.90
2017-08-07T21:08:12.926Z,19.00
2017-08-07T21:10:40.710Z,19.00
2017-08-07T21:13:08.404Z,19.00
2017-08-07T21:15:35.974Z,19.00
2017-08-07T21:18:03.582Z,19.10
2017-08-07T21:20:31.939Z,19.00
2017-08-07T21:22:59.530Z,19.00
2017-08-07T21:25:27.377Z,19.00
2017-08-07T21:27:55.763Z,18.80
2017-08-07T21:30:24.187Z,18.70
2017-08-07T21:32:51.996Z,18.70
2017-08-07T21:35:20.349Z,18.50
2017-08-07T21:37:47.934Z,18.50
2017-08-07T21:40:16.380Z,18.20
2017-08-07T21:42:43.966Z,18.20
2017-08-07T21:45:12.323Z,18.30
2017-08-07T21:47:40.035Z,18.30
2017-08-07T21:50:07.799Z,18.30
2017-08-07T21:52:36.710Z,18.30
2017-08-07T21:55:04.343Z,18.30
2017-08-07T21:57:32.697Z,18.20
2017-08-07T22:00:00.330Z,18.20
2017-08-07T22:02:27.966Z,18.10
2017-08-07T22:04:55.584Z,18.10
2017-08-07T22:07:23.264Z,18.10
2017-08-07T22:09:50.952Z,18.20
2017-08-07T22:12:18.555Z,18.20
2017-08-07T22:14:46.142Z,18.20
2017-08-07T22:17:14.021Z,18.20
2017-08-07T22:19:42.439Z,18.20
2017-08-07T22:22:10.029Z,18.20
2017-08-07T22:24:37.850Z,18.20
2017-08-07T22:27:05.487Z,18.20
2017-08-07T22:29:33.864Z,18.10
2017-08-07T22:32:02.254Z,18.00
2017-08-07T22:34:29.898Z,18.00
2017-08-07T22:36:57.487Z,18.00
2017-08-07T22:39:25.096Z,17.90
2017-08-07T22:41:52.791Z,17.90
2017-08-07T22:44:21.190Z,17.70
2017-08-07T22:46:48.891Z,17.70
2017-08-07T22:49:16.470Z,17.70
2017-08-07T22:51:44.257Z,17.60
2017-08-07T22:54:12.740Z,17.60
2017-08-07T22:56:40.359Z,17.50
2017-08-07T22:59:07.984Z,17.60
2017-08-07T23:01:35.803Z,17.40
2017-08-07T23:04:03.375Z,17.50
2017-08-07T23:06:30.971Z,17.50
2017-08-07T23:08:58.712Z,17.50
2017-08-07T23:11:27.109Z,17.40
2017-08-07T23:13:54.729Z,17.40
2017-08-07T23:16:22.447Z,17.30
2017-08-07T23:18:50.151Z,17.30
2017-08-07T23:21:17.919Z,17.40
2017-08-07T23:23:45.540Z,17.30
2017-08-07T23:26:13.114Z,17.40
2017-08-07T23:28:40.698Z,17.40
2017-08-07T23:31:08.348Z,17.40
2017-08-07T23:33:36.047Z,17.40
2017-08-07T23:38:38.371Z,17.40
2017-08-07T23:41:06.031Z,17.40
2017-08-07T23:43:33.694Z,17.40
2017-08-07T23:46:01.319Z,17.40
2017-08-07T23:48:29.676Z,17.30
2017-08-07T23:50:57.320Z,17.30
2017-08-07T23:53:24.969Z,17.30
2017-08-07T23:55:52.555Z,17.20
2017-08-07T23:58:20.300Z,17.20
